Time;durP1;ratioP1;P1;durP2;ratioP2;P2;SDS_P1;SDS_P2;PMS_P1;PMS_P2;Temp;Humidity;BMP_temperature;BMP_pressure;BME280_temperature;BME280_humidity;BME280_pressure;Samples;Min_cycle;Max_cycle;Signal;HPM_P1;HPM_P2
2022/06/05 00:01:58;;;;;;;3.20;2.90;;;25.00;42.00;;;;;;5082817;28;20464;-82
2022/06/05 00:04:33;;;;;;;2.77;2.60;;;24.90;42.00;;;;;;5083533;28;20412;-82
2022/06/05 00:07:04;;;;;;;3.03;2.90;;;24.90;42.00;;;;;;5083987;28;20422;-82
2022/06/05 00:09:35;;;;;;;3.10;2.90;;;24.90;42.10;;;;;;5082827;28;20923;-82
2022/06/05 00:12:05;;;;;;;3.57;3.37;;;24.90;42.10;;;;;;5083425;28;20504;-82
2022/06/05 00:14:37;;;;;;;3.20;3.00;;;24.80;42.00;;;;;;5083439;28;20465;-83
2022/06/05 00:17:09;;;;;;;3.60;2.97;;;24.80;42.20;;;;;;5083057;28;20466;-82
2022/06/05 00:19:37;;;;;;;2.73;2.63;;;24.90;42.20;;;;;;5083769;28;20452;-82
2022/06/05 00:22:05;;;;;;;2.83;2.73;;;24.80;42.10;;;;;;5083429;28;20453;-82
2022/06/05 00:24:33;;;;;;;2.90;2.70;;;24.80;42.10;;;;;;5083382;28;20458;-82
2022/06/05 00:27:03;;;;;;;2.90;2.70;;;24.70;42.20;;;;;;5083854;28;20442;-83
2022/06/05 00:29:39;;;;;;;2.87;2.77;;;24.70;42.20;;;;;;5083675;28;20451;-82
2022/06/05 00:32:12;;;;;;;3.27;3.07;;;24.70;42.30;;;;;;5082451;28;20492;-82
2022/06/05 00:34:41;;;;;;;3.10;2.90;;;24.70;42.20;;;;;;5082922;28;20434;-82
2022/06/05 00:37:16;;;;;;;3.23;3.10;;;24.70;42.40;;;;;;5082494;28;20472;-82
2022/06/05 00:39:46;;;;;;;2.93;2.83;;;24.70;43.00;;;;;;5083075;28;20447;-82
2022/06/05 00:42:16;;;;;;;2.80;2.70;;;24.60;42.40;;;;;;5083212;28;20453;-80
2022/06/05 00:44:47;;;;;;;2.53;2.43;;;24.60;42.30;;;;;;5082713;28;20438;-83
2022/06/05 00:47:17;;;;;;;2.70;2.60;;;24.60;42.40;;;;;;5083610;28;20472;-82
2022/06/05 00:49:47;;;;;;;3.20;3.10;;;24.50;42.30;;;;;;5083801;28;20443;-82
2022/06/05 00:52:15;;;;;;;3.40;3.20;;;24.50;42.40;;;;;;5083309;28;20472;-82
2022/06/05 00:54:43;;;;;;;3.23;3.03;;;24.50;42.40;;;;;;5083315;28;20425;-82
2022/06/05 00:57:11;;;;;;;3.00;2.80;;;24.50;42.40;;;;;;5083064;28;20449;-82
2022/06/05 00:59:40;;;;;;;3.30;3.00;;;24.40;42.40;;;;;;5083019;28;20541;-82
2022/06/05 01:02:09;;;;;;;3.07;2.97;;;24.40;42.40;;;;;;5083401;28;20461;-82
2022/06/05 01:04:40;;;;;;;3.37;3.17;;;24.40;42.40;;;;;;5083068;28;20466;-82
2022/06/05 01:07:09;;;;;;;3.17;2.93;;;24.40;42.50;;;;;;5082473;28;20443;-83
2022/06/05 01:09:37;;;;;;;3.30;3.10;;;24.30;42.40;;;;;;5082963;28;20430;-82
2022/06/05 01:12:09;;;;;;;2.87;2.67;;;24.30;42.60;;;;;;5083592;28;20566;-82
2022/06/05 01:14:43;;;;;;;3.10;3.00;;;24.30;42.60;;;;;;5082754;28;20523;-83
2022/06/05 01:17:15;;;;;;;3.23;3.03;;;24.30;42.60;;;;;;5082749;28;20513;-82
2022/06/05 01:19:47;;;;;;;3.67;3.37;;;24.30;42.60;;;;;;5083771;28;20442;-82
2022/06/05 01:22:31;;;;;;;3.30;3.20;;;24.30;42.50;;;;;;5083579;28;20486;-82
2022/06/05 01:25:13;;;;;;;3.13;2.93;;;24.20;42.50;;;;;;5083514;28;20456;-83
2022/06/05 01:27:44;;;;;;;3.40;3.17;;;24.20;42.70;;;;;;5083976;28;20420;-83
2022/06/05 01:30:13;;;;;;;3.37;3.17;;;24.20;42.70;;;;;;5086110;28;20405;-83
2022/06/05 01:32:43;;;;;;;3.03;2.93;;;24.10;42.60;;;;;;5086013;28;20458;-82
2022/06/05 01:35:17;;;;;;;3.57;2.93;;;24.10;42.80;;;;;;5086196;28;20517;-82
2022/06/05 01:37:47;;;;;;;3.20;3.00;;;24.10;42.70;;;;;;5087746;28;20452;-82
2022/06/05 01:40:17;;;;;;;2.80;2.70;;;24.10;42.80;;;;;;5087836;28;20465;-82
2022/06/05 01:42:47;;;;;;;3.20;3.00;;;24.10;42.80;;;;;;5087211;28;20428;-82
2022/06/05 01:45:18;;;;;;;3.33;3.13;;;24.00;42.70;;;;;;5086957;28;20449;-81
2022/06/05 01:47:47;;;;;;;2.97;2.77;;;24.00;42.70;;;;;;5086771;28;20469;-82
2022/06/05 01:53:57;;;;;;;3.27;3.17;;;23.90;42.60;;;;;;5086820;28;20503;-82
2022/06/05 01:56:27;;;;;;;3.37;3.17;;;23.90;42.90;;;;;;5086557;28;20426;-81
2022/06/05 01:58:59;;;;;;;3.50;3.20;;;23.90;43.00;;;;;;5086030;28;20454;-81
2022/06/05 02:01:28;;;;;;;3.20;3.00;;;23.90;42.90;;;;;;5085532;28;20545;-82
2022/06/05 02:03:58;;;;;;;3.30;3.10;;;23.80;42.90;;;;;;5086160;28;20441;-81
2022/06/05 02:06:29;;;;;;;3.57;3.37;;;23.90;42.90;;;;;;5086663;28;20472;-82
2022/06/05 02:08:59;;;;;;;3.03;2.83;;;23.80;42.70;;;;;;5086835;28;20458;-81
2022/06/05 02:11:28;;;;;;;3.27;3.07;;;23.80;43.00;;;;;;5086558;28;20497;-82
2022/06/05 02:13:58;;;;;;;3.50;3.20;;;23.80;43.00;;;;;;5086460;28;20483;-82
2022/06/05 02:16:26;;;;;;;3.40;3.20;;;23.80;43.00;;;;;;5087230;28;20476;-82
2022/06/05 02:18:55;;;;;;;3.60;3.40;;;23.80;43.00;;;;;;5086036;28;20445;-82
2022/06/05 02:21:22;;;;;;;3.17;2.93;;;23.70;43.00;;;;;;5086948;28;20516;-83
2022/06/05 02:23:50;;;;;;;3.57;3.27;;;23.70;42.90;;;;;;5086794;28;20430;-81
2022/06/05 02:26:18;;;;;;;3.27;3.07;;;23.70;43.00;;;;;;5086274;28;20444;-82
2022/06/05 02:28:46;;;;;;;3.53;3.33;;;23.70;43.10;;;;;;5086801;28;20448;-81
2022/06/05 02:31:22;;;;;;;3.03;2.83;;;23.70;43.00;;;;;;5086361;28;20493;-82
2022/06/05 02:33:56;;;;;;;3.07;2.83;;;23.70;43.00;;;;;;5086951;28;20492;-82
2022/06/05 02:36:27;;;;;;;3.63;3.43;;;23.70;43.00;;;;;;5087623;28;20428;-82
2022/06/05 02:39:01;;;;;;;3.20;3.00;;;23.70;43.10;;;;;;5086487;28;20442;-82
2022/06/05 02:41:32;;;;;;;3.50;3.30;;;23.70;43.70;;;;;;5086403;28;20461;-81
2022/06/05 02:46:51;;;;;;;4.70;4.30;;;23.60;43.00;;;;;;5086176;28;20440;-83
2022/06/05 02:49:23;;;;;;;3.53;3.23;;;23.60;43.10;;;;;;5086492;28;20488;-81
2022/06/05 02:51:51;;;;;;;3.47;3.27;;;23.60;43.20;;;;;;5085657;28;20481;-82
2022/06/05 02:54:20;;;;;;;4.53;3.47;;;23.50;42.90;;;;;;5086118;28;20444;-83
2022/06/05 02:56:48;;;;;;;5.43;3.13;;;23.60;43.10;;;;;;5086042;28;20405;-81
2022/06/05 02:59:16;;;;;;;3.70;3.50;;;23.50;43.20;;;;;;5085147;28;20526;-82
2022/06/05 03:04:30;;;;;;;3.50;3.20;;;23.50;43.20;;;;;;5085338;28;20495;-82
2022/06/05 03:06:58;;;;;;;3.90;3.60;;;23.50;43.20;;;;;;5085088;28;20418;-82
2022/06/05 03:09:26;;;;;;;3.33;3.17;;;23.40;43.10;;;;;;5084653;28;20502;-81
2022/06/05 03:11:54;;;;;;;3.60;3.30;;;23.40;43.20;;;;;;5085210;28;20503;-82
2022/06/05 03:14:22;;;;;;;3.77;3.57;;;23.40;43.10;;;;;;5084677;28;20497;-81
2022/06/05 03:16:50;;;;;;;3.60;3.40;;;23.40;43.10;;;;;;5085043;28;20529;-81
2022/06/05 03:19:18;;;;;;;3.60;3.40;;;23.40;43.30;;;;;;5085818;28;20426;-82
2022/06/05 03:21:47;;;;;;;3.50;3.20;;;23.40;43.10;;;;;;5085802;28;20461;-81
2022/06/05 03:24:15;;;;;;;3.87;3.67;;;23.40;43.10;;;;;;5086060;28;20480;-82
2022/06/05 03:26:44;;;;;;;3.40;3.30;;;23.40;43.10;;;;;;5085570;28;20436;-82
2022/06/05 03:29:11;;;;;;;3.23;3.13;;;23.40;43.40;;;;;;5085631;28;20408;-82
2022/06/05 03:31:39;;;;;;;3.10;3.00;;;23.40;43.10;;;;;;5085040;28;20481;-81
2022/06/05 03:34:08;;;;;;;4.27;3.97;;;23.40;43.30;;;;;;5085375;28;20462;-82
2022/06/05 03:36:36;;;;;;;3.63;3.43;;;23.30;43.10;;;;;;5085024;28;20438;-81
2022/06/05 03:39:05;;;;;;;3.50;3.30;;;23.30;43.20;;;;;;5084652;28;20447;-82
2022/06/05 03:41:33;;;;;;;3.23;3.03;;;23.30;43.30;;;;;;5084769;28;20453;-82
2022/06/05 03:44:01;;;;;;;3.10;2.90;;;23.30;43.30;;;;;;5085206;28;20440;-81
2022/06/05 03:46:29;;;;;;;3.50;3.30;;;23.30;43.20;;;;;;5084063;28;20424;-82
2022/06/05 03:48:57;;;;;;;3.37;3.17;;;23.30;43.30;;;;;;5084786;28;20452;-82
2022/06/05 03:51:25;;;;;;;3.77;3.57;;;23.30;43.20;;;;;;5084198;28;20452;-83
2022/06/05 03:53:53;;;;;;;3.23;3.03;;;23.30;43.40;;;;;;5083085;28;20505;-81
2022/06/05 03:56:24;;;;;;;3.53;3.23;;;23.30;43.20;;;;;;5084555;28;20451;-82
2022/06/05 03:58:52;;;;;;;3.33;3.13;;;23.30;43.10;;;;;;5084535;28;20424;-83
2022/06/05 04:01:22;;;;;;;3.20;3.00;;;23.30;43.40;;;;;;5083669;28;20467;-83
2022/06/05 04:03:50;;;;;;;3.80;3.60;;;23.30;43.30;;;;;;5084416;28;20416;-82
2022/06/05 04:06:20;;;;;;;3.53;3.33;;;23.30;43.10;;;;;;5084937;28;20420;-82
2022/06/05 04:08:47;;;;;;;3.20;3.03;;;23.30;43.30;;;;;;5084902;28;20436;-82
2022/06/05 04:11:17;;;;;;;3.60;3.40;;;23.30;43.20;;;;;;5084571;28;20515;-82
2022/06/05 04:13:47;;;;;;;3.70;3.50;;;23.30;43.20;;;;;;5085336;28;20455;-82
2022/06/05 04:16:18;;;;;;;3.50;3.30;;;23.30;43.20;;;;;;5084551;28;20465;-82
2022/06/05 04:18:46;;;;;;;3.63;3.43;;;23.30;43.10;;;;;;5084827;28;20469;-83
2022/06/05 04:21:15;;;;;;;3.60;3.40;;;23.30;43.20;;;;;;5085254;28;20473;-82
2022/06/05 04:23:43;;;;;;;3.10;2.90;;;23.30;43.10;;;;;;5083964;28;20496;-82
2022/06/05 04:26:13;;;;;;;3.33;3.20;;;23.30;43.20;;;;;;5083661;28;20421;-84
2022/06/05 04:28:42;;;;;;;3.60;3.30;;;23.30;43.30;;;;;;5084045;28;20457;-82
2022/06/05 04:31:19;;;;;;;3.60;3.40;;;23.30;43.20;;;;;;5083557;28;20456;-82
2022/06/05 04:33:47;;;;;;;3.77;3.50;;;23.30;42.90;;;;;;5084607;28;20416;-81
2022/06/05 04:36:15;;;;;;;3.30;3.13;;;23.30;43.10;;;;;;5084438;28;20449;-82
2022/06/05 04:38:43;;;;;;;3.70;3.40;;;23.30;43.10;;;;;;5083261;28;20483;-82
2022/06/05 04:41:12;;;;;;;3.40;3.20;;;23.30;43.00;;;;;;5083944;28;20459;-82
2022/06/05 04:43:39;;;;;;;3.33;3.13;;;23.30;43.00;;;;;;5083594;28;20424;-82
2022/06/05 04:46:08;;;;;;;3.40;3.20;;;23.30;43.00;;;;;;5083927;28;20505;-82
2022/06/05 04:48:38;;;;;;;3.40;3.23;;;23.30;43.00;;;;;;5084412;28;20509;-82
2022/06/05 04:51:06;;;;;;;2.77;2.67;;;23.30;43.00;;;;;;5084815;28;20420;-83
2022/06/05 04:53:34;;;;;;;3.47;3.30;;;23.30;42.80;;;;;;5083633;28;20412;-82
2022/06/05 04:56:03;;;;;;;3.50;3.30;;;23.30;43.10;;;;;;5084233;28;20465;-82
2022/06/05 04:58:31;;;;;;;3.17;3.00;;;23.30;43.20;;;;;;5085478;28;20408;-82
2022/06/05 05:00:59;;;;;;;3.00;2.90;;;23.30;43.00;;;;;;5085342;28;20466;-81
2022/06/05 05:03:27;;;;;;;3.70;3.40;;;23.30;42.90;;;;;;5084278;28;20422;-82
2022/06/05 05:05:56;;;;;;;3.20;3.10;;;23.30;43.00;;;;;;5088301;28;20446;-83
2022/06/05 05:08:24;;;;;;;3.70;3.50;;;23.30;42.90;;;;;;5088443;28;20491;-81
2022/06/05 05:10:52;;;;;;;3.50;3.30;;;23.40;42.90;;;;;;5088518;28;20465;-82
2022/06/05 05:13:21;;;;;;;2.73;2.63;;;23.40;43.10;;;;;;5088976;28;20476;-82
2022/06/05 05:15:49;;;;;;;3.40;3.20;;;23.40;42.80;;;;;;5088657;28;20467;-81
2022/06/05 05:18:17;;;;;;;3.07;2.97;;;23.40;42.90;;;;;;5088690;28;20474;-81
2022/06/05 05:20:45;;;;;;;3.23;3.00;;;23.40;42.80;;;;;;5088765;28;20489;-82
2022/06/05 05:23:14;;;;;;;3.43;3.27;;;23.40;42.70;;;;;;5088483;28;20452;-82
2022/06/05 05:25:42;;;;;;;3.40;3.20;;;23.40;42.70;;;;;;5087988;28;20438;-82
2022/06/05 05:28:10;;;;;;;3.50;3.30;;;23.40;42.80;;;;;;5086828;28;20432;-83
2022/06/05 05:30:38;;;;;;;3.00;2.90;;;23.40;42.80;;;;;;5087814;28;20491;-82
2022/06/05 05:33:06;;;;;;;3.07;2.97;;;23.40;42.60;;;;;;5086780;28;20416;-81
2022/06/05 05:35:34;;;;;;;3.37;3.17;;;23.40;42.80;;;;;;5088146;28;20468;-81
2022/06/05 05:38:02;;;;;;;3.03;2.93;;;23.40;42.80;;;;;;5087560;28;20505;-82
2022/06/05 05:43:17;;;;;;;3.20;3.00;;;23.40;42.60;;;;;;5088264;28;20461;-81
2022/06/05 05:45:45;;;;;;;3.27;3.17;;;23.40;42.70;;;;;;5087992;28;20422;-82
2022/06/05 05:48:13;;;;;;;3.20;3.10;;;23.40;42.60;;;;;;5087480;28;20408;-81
2022/06/05 05:50:43;;;;;;;3.37;3.27;;;23.50;42.80;;;;;;5087514;28;20503;-81
2022/06/05 05:53:11;;;;;;;3.50;3.33;;;23.50;42.80;;;;;;5088167;28;20447;-79
2022/06/05 05:55:40;;;;;;;3.70;3.40;;;23.50;42.50;;;;;;5087629;28;20461;-82
2022/06/05 05:58:08;;;;;;;3.33;3.03;;;23.50;42.40;;;;;;5087692;28;20411;-82
2022/06/05 06:00:36;;;;;;;3.20;3.00;;;23.50;42.60;;;;;;5088185;28;20420;-82
2022/06/05 06:03:04;;;;;;;3.33;3.13;;;23.50;42.60;;;;;;5088738;28;20440;-81
2022/06/05 06:05:35;;;;;;;3.20;3.00;;;23.60;42.50;;;;;;5088615;28;20416;-82
2022/06/05 06:08:03;;;;;;;3.60;3.30;;;23.50;42.40;;;;;;5088223;28;20448;-81
2022/06/05 06:10:31;;;;;;;3.50;3.30;;;23.60;42.50;;;;;;5088430;28;20413;-81
2022/06/05 06:13:00;;;;;;;3.23;3.13;;;23.60;42.50;;;;;;5088623;28;20460;-82
2022/06/05 06:15:27;;;;;;;3.23;3.03;;;23.60;42.40;;;;;;5087468;28;20468;-81
2022/06/05 06:17:55;;;;;;;3.13;3.03;;;23.60;42.40;;;;;;5088783;28;20458;-82
2022/06/05 06:20:23;;;;;;;2.80;2.70;;;23.70;42.50;;;;;;5088203;28;20416;-82
2022/06/05 06:22:51;;;;;;;3.70;3.50;;;23.70;42.40;;;;;;5088182;28;20470;-81
2022/06/05 06:25:19;;;;;;;3.20;3.00;;;23.70;42.30;;;;;;5087925;28;20400;-82
2022/06/05 06:27:47;;;;;;;3.23;3.10;;;23.70;42.40;;;;;;5088943;28;20408;-82
2022/06/05 06:30:16;;;;;;;3.30;3.10;;;23.80;42.30;;;;;;5088599;28;20525;-82
2022/06/05 06:32:44;;;;;;;2.97;2.87;;;23.80;42.20;;;;;;5087979;28;20432;-82
2022/06/05 06:35:12;;;;;;;3.20;3.07;;;23.80;42.20;;;;;;5087820;28;20472;-81
2022/06/05 06:37:40;;;;;;;3.60;3.40;;;23.80;42.20;;;;;;5088402;28;20445;-84
2022/06/05 06:40:09;;;;;;;3.10;2.90;;;23.90;42.30;;;;;;5088142;28;20431;-82
2022/06/05 06:42:37;;;;;;;2.50;2.40;;;23.90;42.10;;;;;;5088005;28;20452;-81
2022/06/05 06:45:06;;;;;;;3.10;3.00;;;23.90;42.10;;;;;;5087767;28;20436;-81
2022/06/05 06:47:36;;;;;;;2.80;2.70;;;24.00;42.10;;;;;;5087392;28;20453;-83
2022/06/05 06:50:05;;;;;;;3.60;3.40;;;24.10;42.10;;;;;;5087092;28;20419;-82
2022/06/05 06:52:33;;;;;;;3.47;3.27;;;24.10;42.10;;;;;;5087187;28;20528;-82
2022/06/05 06:55:01;;;;;;;3.53;3.33;;;24.10;42.00;;;;;;5087429;28;20448;-82
2022/06/05 06:57:29;;;;;;;2.83;2.73;;;24.20;42.20;;;;;;5087155;28;20444;-83
2022/06/05 06:59:57;;;;;;;3.10;2.90;;;24.20;42.00;;;;;;5087398;28;20432;-80
2022/06/05 07:02:25;;;;;;;3.50;3.30;;;24.20;42.00;;;;;;5087338;28;20471;-79
2022/06/05 07:04:54;;;;;;;2.73;2.63;;;24.30;42.00;;;;;;5087439;28;20456;-81
2022/06/05 07:07:22;;;;;;;3.00;2.90;;;24.30;41.80;;;;;;5087768;28;20496;-81
2022/06/05 07:09:50;;;;;;;3.27;3.07;;;24.30;42.00;;;;;;5087813;28;20417;-83
2022/06/05 07:12:21;;;;;;;3.03;2.87;;;24.40;41.90;;;;;;5087443;28;20460;-83
2022/06/05 07:14:49;;;;;;;2.90;2.80;;;24.40;41.90;;;;;;5085870;28;20439;-81
2022/06/05 07:17:17;;;;;;;3.00;2.90;;;24.50;41.90;;;;;;5085619;28;20448;-82
2022/06/05 07:19:46;;;;;;;3.27;3.13;;;24.50;41.80;;;;;;5085569;28;20465;-82
2022/06/05 07:22:15;;;;;;;2.87;2.77;;;24.60;41.90;;;;;;5085856;28;20451;-82
2022/06/05 07:24:43;;;;;;;2.93;2.83;;;24.70;41.70;;;;;;5087179;28;20444;-82
2022/06/05 07:27:11;;;;;;;2.73;2.63;;;24.70;41.70;;;;;;5086723;28;20475;-82
2022/06/05 07:29:39;;;;;;;3.20;3.10;;;24.80;41.70;;;;;;5086182;28;20420;-82
2022/06/05 07:32:07;;;;;;;3.20;3.10;;;24.90;41.70;;;;;;5085648;28;20456;-82
2022/06/05 07:34:35;;;;;;;2.90;2.80;;;24.90;41.60;;;;;;5086139;28;20427;-81
2022/06/05 07:37:10;;;;;;;3.17;3.07;;;25.00;41.60;;;;;;5086729;28;20443;-82
2022/06/05 07:39:40;;;;;;;2.87;2.77;;;25.10;41.60;;;;;;5086366;28;20412;-83
2022/06/05 07:42:08;;;;;;;2.80;2.70;;;25.10;41.50;;;;;;5086274;28;20485;-82
2022/06/05 07:44:36;;;;;;;2.90;2.80;;;25.20;41.40;;;;;;5086697;28;20419;-82
2022/06/05 07:47:04;;;;;;;3.50;3.30;;;25.30;41.40;;;;;;5085587;28;20452;-83
2022/06/05 07:49:34;;;;;;;3.00;2.90;;;25.40;41.40;;;;;;5085782;28;20466;-83
2022/06/05 07:54:48;;;;;;;2.93;2.83;;;25.50;41.20;;;;;;5085125;28;20427;-82
2022/06/05 07:57:18;;;;;;;2.83;2.73;;;25.60;41.20;;;;;;5085575;28;20511;-82
2022/06/05 07:59:47;;;;;;;2.87;2.77;;;25.70;41.10;;;;;;5084714;28;20412;-81
2022/06/05 08:02:18;;;;;;;2.60;2.50;;;25.80;41.00;;;;;;5084366;28;20464;-82
2022/06/05 08:04:47;;;;;;;2.70;2.60;;;25.90;40.90;;;;;;5085598;28;20420;-83
2022/06/05 08:07:16;;;;;;;3.17;3.00;;;26.00;41.00;;;;;;5084701;28;20454;-82
2022/06/05 08:09:44;;;;;;;2.73;2.63;;;26.10;40.80;;;;;;5085867;28;20504;-84
2022/06/05 08:12:15;;;;;;;3.10;3.00;;;26.20;40.70;;;;;;5082950;28;20493;-83
2022/06/05 08:14:44;;;;;;;2.90;2.80;;;26.30;40.70;;;;;;5081921;28;20514;-83
2022/06/05 08:17:14;;;;;;;2.93;2.83;;;26.30;40.60;;;;;;5080128;28;20470;-82
2022/06/05 08:19:43;;;;;;;3.30;3.20;;;26.40;40.50;;;;;;5082645;28;20440;-82
2022/06/05 08:22:11;;;;;;;2.80;2.70;;;26.50;40.50;;;;;;5080223;28;20467;-81
2022/06/05 08:24:40;;;;;;;3.40;3.20;;;26.60;40.50;;;;;;5081646;28;20458;-81
2022/06/05 08:27:16;;;;;;;3.13;3.03;;;26.60;40.30;;;;;;5083159;28;20443;-80
2022/06/05 08:29:44;;;;;;;3.07;2.97;;;26.70;40.20;;;;;;5083201;28;20465;-82
2022/06/05 08:32:12;;;;;;;2.93;2.83;;;26.80;40.30;;;;;;5082019;28;20450;-81
2022/06/05 08:34:40;;;;;;;2.70;2.60;;;26.90;40.20;;;;;;5082593;28;20422;-81
2022/06/05 08:42:45;;;;;;;3.23;3.07;;;27.10;40.10;;;;;;5080934;28;20516;-81
2022/06/05 08:45:24;;;;;;;2.83;2.73;;;27.20;40.20;;;;;;5082921;28;20429;-82
2022/06/05 08:47:54;;;;;;;2.83;2.73;;;27.30;40.00;;;;;;5083754;28;20433;-81
2022/06/05 08:50:25;;;;;;;2.80;2.70;;;27.30;39.90;;;;;;5084529;28;20472;-81
2022/06/05 08:52:57;;;;;;;3.30;3.10;;;27.40;39.90;;;;;;5084256;28;20456;-81
2022/06/05 08:55:28;;;;;;;2.70;2.50;;;27.50;40.00;;;;;;5084864;28;20444;-81
2022/06/05 08:57:59;;;;;;;3.00;2.90;;;27.50;39.90;;;;;;5084910;28;20480;-82
2022/06/05 09:00:33;;;;;;;2.90;2.80;;;27.50;39.80;;;;;;5085829;28;20453;-82
2022/06/05 09:03:05;;;;;;;2.83;2.73;;;27.60;40.00;;;;;;5083349;28;20451;-82
2022/06/05 09:05:36;;;;;;;2.80;2.70;;;27.60;39.90;;;;;;5083835;28;20449;-83
2022/06/05 09:08:06;;;;;;;2.70;2.60;;;27.70;39.80;;;;;;5084982;28;20509;-83
2022/06/05 09:10:38;;;;;;;3.00;2.90;;;27.70;39.80;;;;;;5084612;28;20445;-83
2022/06/05 09:13:14;;;;;;;2.90;2.80;;;27.70;39.80;;;;;;5084832;28;20507;-83
2022/06/05 09:15:45;;;;;;;2.60;2.50;;;27.70;39.90;;;;;;5084272;28;20445;-83
2022/06/05 09:18:16;;;;;;;2.80;2.70;;;27.80;39.80;;;;;;5083963;28;20460;-82
2022/06/05 09:20:51;;;;;;;3.07;2.97;;;27.80;39.80;;;;;;5084181;28;20469;-82
2022/06/05 09:23:23;;;;;;;2.73;2.63;;;27.80;39.80;;;;;;5084347;28;20438;-83
2022/06/05 09:25:58;;;;;;;3.03;2.80;;;27.90;39.80;;;;;;5084260;28;20477;-83
2022/06/05 09:28:44;;;;;;;2.90;2.80;;;28.00;39.90;;;;;;5084375;28;20512;-83
2022/06/05 09:31:26;;;;;;;2.77;2.67;;;28.00;39.60;;;;;;5084270;28;20549;-83
2022/06/05 09:33:55;;;;;;;2.77;2.67;;;28.10;39.60;;;;;;5084380;28;20451;-83
2022/06/05 09:36:24;;;;;;;2.70;2.60;;;28.10;39.60;;;;;;5084420;28;20491;-84
2022/06/05 09:38:55;;;;;;;2.73;2.63;;;28.20;39.60;;;;;;5083666;28;20472;-82
2022/06/05 09:41:31;;;;;;;2.80;2.70;;;28.30;39.60;;;;;;5084623;28;20463;-83
2022/06/05 09:44:08;;;;;;;2.70;2.60;;;28.30;39.50;;;;;;5084003;28;20449;-84
2022/06/05 09:46:45;;;;;;;2.83;2.63;;;28.40;39.50;;;;;;5083318;28;20480;-83
2022/06/05 09:49:16;;;;;;;2.57;2.47;;;28.40;39.40;;;;;;5084152;28;20444;-82
2022/06/05 09:51:45;;;;;;;2.90;2.80;;;28.60;39.40;;;;;;5085357;28;20468;-82
2022/06/05 09:54:16;;;;;;;2.47;2.37;;;28.60;39.30;;;;;;5086970;28;20438;-82
2022/06/05 09:59:39;;;;;;;2.90;2.80;;;28.80;39.30;;;;;;5086687;28;20437;-83
2022/06/05 10:02:07;;;;;;;2.70;2.60;;;28.90;39.10;;;;;;5086576;28;20485;-84
2022/06/05 10:04:36;;;;;;;2.57;2.47;;;28.90;39.10;;;;;;5087181;28;20505;-83
2022/06/05 10:07:25;;;;;;;2.60;2.50;;;29.10;39.00;;;;;;5087152;28;20512;-82
2022/06/05 10:09:53;;;;;;;2.70;2.60;;;29.10;39.00;;;;;;5085327;28;20473;-83
2022/06/05 10:12:24;;;;;;;2.60;2.50;;;29.20;38.90;;;;;;5084023;28;20496;-84
2022/06/05 10:14:56;;;;;;;2.83;2.73;;;29.30;38.80;;;;;;5083921;28;20473;-83
2022/06/05 10:17:56;;;;;;;2.40;2.40;;;29.40;38.80;;;;;;5084166;28;20586;-83
2022/06/05 10:20:47;;;;;;;2.27;2.17;;;29.40;38.60;;;;;;5084123;28;20475;-84
2022/06/05 10:23:21;;;;;;;2.93;2.83;;;29.50;38.70;;;;;;5085190;28;20505;-83
2022/06/05 10:25:54;;;;;;;2.63;2.50;;;29.50;38.80;;;;;;5084958;28;20449;-83
2022/06/05 10:28:23;;;;;;;2.57;2.47;;;29.50;38.70;;;;;;5086056;28;20458;-85
2022/06/05 10:30:57;;;;;;;2.60;2.50;;;29.60;38.80;;;;;;5083713;28;20485;-82
2022/06/05 10:33:35;;;;;;;2.80;2.70;;;29.70;38.70;;;;;;5085015;28;20932;-83
2022/06/05 10:36:06;;;;;;;2.73;2.63;;;29.80;38.60;;;;;;5084210;28;20422;-83
2022/06/05 10:38:37;;;;;;;4.50;2.60;;;29.90;38.70;;;;;;5084557;28;20473;-83
2022/06/05 10:41:12;;;;;;;2.80;2.70;;;30.00;38.50;;;;;;5083989;28;20489;-83
2022/06/05 10:43:40;;;;;;;2.70;2.60;;;30.10;38.30;;;;;;5084931;28;20445;-84
2022/06/05 10:46:20;;;;;;;2.63;2.53;;;30.20;38.20;;;;;;5084280;28;20450;-83
2022/06/05 10:48:50;;;;;;;2.63;2.53;;;30.40;38.20;;;;;;5083956;28;20456;-83
2022/06/05 10:51:22;;;;;;;2.70;2.60;;;30.50;38.10;;;;;;5084059;28;20487;-83
2022/06/05 10:53:54;;;;;;;2.80;2.70;;;30.60;37.90;;;;;;5084080;28;20446;-83
2022/06/05 10:56:30;;;;;;;2.57;2.47;;;30.70;38.00;;;;;;5084219;28;20537;-83
2022/06/05 10:59:02;;;;;;;2.40;2.30;;;30.80;37.80;;;;;;5083325;28;20468;-83
2022/06/05 11:01:47;;;;;;;2.60;2.50;;;30.90;37.90;;;;;;5084396;28;20473;-84
2022/06/05 11:04:19;;;;;;;2.53;2.47;;;30.90;37.60;;;;;;5082328;28;20429;-83
2022/06/05 11:06:53;;;;;;;2.80;2.70;;;31.00;37.80;;;;;;5082815;28;20525;-83
2022/06/05 11:09:47;;;;;;;2.83;2.73;;;31.00;37.70;;;;;;5082769;28;20426;-83
2022/06/05 11:15:09;;;;;;;2.37;2.27;;;31.10;37.70;;;;;;5083409;28;20460;-82
2022/06/05 11:17:44;;;;;;;2.63;2.53;;;31.10;37.60;;;;;;5083823;28;20500;-82
2022/06/05 11:20:14;;;;;;;2.67;2.57;;;31.20;37.60;;;;;;5082913;28;20477;-82
2022/06/05 11:22:46;;;;;;;3.00;2.90;;;31.20;37.40;;;;;;5081562;28;20473;-82
2022/06/05 11:25:26;;;;;;;2.90;2.80;;;31.30;37.40;;;;;;5080491;28;20472;-83
2022/06/05 11:28:01;;;;;;;2.83;2.73;;;31.30;37.40;;;;;;5081313;28;20442;-82
2022/06/05 11:30:34;;;;;;;2.80;2.63;;;31.30;37.50;;;;;;5079511;28;20445;-82
2022/06/05 11:33:07;;;;;;;3.13;3.03;;;31.40;37.40;;;;;;5080146;28;20477;-83
2022/06/05 11:35:37;;;;;;;2.93;2.83;;;31.40;37.50;;;;;;5079920;28;20528;-83
2022/06/05 11:38:19;;;;;;;2.50;2.40;;;31.40;37.50;;;;;;5080404;28;20462;-84
2022/06/05 11:40:48;;;;;;;2.80;2.70;;;31.40;37.50;;;;;;5079977;28;20465;-82
2022/06/05 11:43:26;;;;;;;2.70;2.60;;;31.50;37.50;;;;;;5079438;28;20450;-82
2022/06/05 11:46:19;;;;;;;2.43;2.33;;;31.50;37.50;;;;;;5079691;28;20537;-84
2022/06/05 11:48:51;;;;;;;2.60;2.50;;;31.40;37.50;;;;;;5079225;28;20445;-83
2022/06/05 11:51:21;;;;;;;2.60;2.50;;;31.40;37.50;;;;;;5080084;28;20545;-83
2022/06/05 11:54:00;;;;;;;2.87;2.77;;;31.40;37.50;;;;;;5079889;28;20452;-84
2022/06/05 11:56:42;;;;;;;3.03;2.93;;;31.40;37.50;;;;;;5079597;28;20446;-83
2022/06/05 11:59:16;;;;;;;2.60;2.60;;;31.50;37.60;;;;;;5078794;28;20508;-83
2022/06/05 12:01:46;;;;;;;2.70;2.50;;;31.50;37.50;;;;;;5078472;28;20500;-84
2022/06/05 12:04:19;;;;;;;2.87;2.77;;;31.50;37.60;;;;;;5078675;28;20453;-83
2022/06/05 12:06:49;;;;;;;2.70;2.60;;;31.50;37.60;;;;;;5084615;28;20446;-84
2022/06/05 12:09:18;;;;;;;2.77;2.67;;;31.50;37.70;;;;;;5080678;28;20469;-84
2022/06/05 12:11:52;;;;;;;2.60;2.50;;;31.50;37.60;;;;;;5079886;28;20472;-85
2022/06/05 12:14:28;;;;;;;3.10;3.00;;;31.50;37.60;;;;;;5079298;28;20468;-83
2022/06/05 12:17:02;;;;;;;3.00;2.60;;;31.50;37.70;;;;;;5080266;28;20441;-83
2022/06/05 12:19:56;;;;;;;2.70;2.60;;;31.50;37.60;;;;;;5080629;28;20468;-84
2022/06/05 12:22:27;;;;;;;2.50;2.40;;;31.60;37.50;;;;;;5078054;28;20497;-84
2022/06/05 12:24:58;;;;;;;2.80;2.70;;;31.60;37.60;;;;;;5080574;28;20460;-84
2022/06/05 12:27:27;;;;;;;2.60;2.50;;;31.60;37.60;;;;;;5080065;28;20497;-83
2022/06/05 12:29:57;;;;;;;2.40;2.40;;;31.60;37.40;;;;;;5081953;28;20472;-84
2022/06/05 12:32:29;;;;;;;2.60;2.50;;;31.60;37.50;;;;;;5080687;28;20489;-83
2022/06/05 12:35:02;;;;;;;3.03;2.93;;;31.60;37.50;;;;;;5079529;28;20469;-84
2022/06/05 12:37:36;;;;;;;3.00;2.90;;;31.70;37.40;;;;;;5079951;28;20441;-84
2022/06/05 12:40:05;;;;;;;2.87;2.73;;;31.70;37.50;;;;;;5079561;28;20469;-84
2022/06/05 12:42:37;;;;;;;2.80;2.70;;;31.60;37.40;;;;;;5081970;28;20470;-83
2022/06/05 12:45:16;;;;;;;3.10;3.00;;;31.70;37.50;;;;;;5081294;28;20472;-84
2022/06/05 12:47:54;;;;;;;2.57;2.47;;;31.70;37.60;;;;;;5081115;28;20472;-84
2022/06/05 12:50:32;;;;;;;2.43;2.37;;;31.60;37.50;;;;;;5078983;28;20516;-85
2022/06/05 12:53:02;;;;;;;2.60;2.50;;;31.50;37.60;;;;;;5079332;28;20522;-84
2022/06/05 12:55:38;;;;;;;2.63;2.53;;;31.50;37.70;;;;;;5079692;28;20816;-83
2022/06/05 12:58:12;;;;;;;2.50;2.50;;;31.50;37.70;;;;;;5078195;28;20525;-85
2022/06/05 13:00:46;;;;;;;2.63;2.53;;;31.50;37.80;;;;;;5078926;28;20533;-83
2022/06/05 13:03:21;;;;;;;2.67;2.57;;;31.50;37.70;;;;;;5078154;28;20521;-86
2022/06/05 13:05:52;;;;;;;2.50;2.40;;;31.40;37.70;;;;;;5078591;28;21002;-84
2022/06/05 13:08:28;;;;;;;2.80;2.70;;;31.40;37.70;;;;;;5079697;28;20524;-84
2022/06/05 13:11:01;;;;;;;3.10;2.90;;;31.40;37.70;;;;;;5079036;28;20589;-85
2022/06/05 13:13:33;;;;;;;2.77;2.67;;;31.40;37.80;;;;;;5078245;28;20452;-84
2022/06/05 13:16:03;;;;;;;2.50;2.40;;;31.40;37.80;;;;;;5078985;28;20430;-85
2022/06/05 13:18:35;;;;;;;2.43;2.33;;;31.30;38.40;;;;;;5079574;28;20468;-84
2022/06/05 13:21:20;;;;;;;2.90;2.80;;;31.30;37.90;;;;;;5079345;28;20500;-85
2022/06/05 13:23:54;;;;;;;2.67;2.57;;;31.30;37.70;;;;;;5078704;28;20476;-85
2022/06/05 13:26:37;;;;;;;2.93;2.83;;;31.20;37.90;;;;;;5081926;28;20475;-85
2022/06/05 13:29:13;;;;;;;2.40;2.30;;;31.20;37.90;;;;;;5082168;28;20449;-83
2022/06/05 13:31:44;;;;;;;2.77;2.67;;;31.20;38.00;;;;;;5080985;28;20552;-84
2022/06/05 13:34:19;;;;;;;2.73;2.63;;;31.20;38.00;;;;;;5082219;28;20881;-83